Ukiah, Oregon
Current Conditions -  °F | °C
As of 3:16 PM on Friday 31 Oct 2014 (Local Time) from KMEH Reporting Station
Overcast Overcast  
Wind Chill: 47°   Ceiling: 1300
Heat Index: 47°   Visibility: 10mi
Dew Point: 42°   Wind: 3mph
Humidity: 83%   Direction: NA
Pressure: 29.84"   Gusts: NA
Location:  45.13°N, 118.93°W
Report Text: KMEH 312216Z AUTO VRB03KT 10SM BKN013 BKN018 OVC060 08/06 A2984 RMK AO2 T00830056
Loading
Personal Weather Stations






























Interactive Weather Map
Tropical Storm Tracking
New forecast layout! Learn more

10-Day Weather Forecast

Advertisements
Track Severe Weather on mobile